Archival Weather

Aeroparque Jorge Newbery

Buenos Aires, Argentina (SABE)

Report from: Thursday, September 21, 2023 3:00 PM -03
Current time: Tuesday, July 16, 2024 12:36 PM -03

Current weather – Weather history – Daily summaries
Weather forecast

Present weatherMist
Temperature18.0°C (64.4°F)
Dew point17.0°C (62.6°F)
Winds 5 kts (2.6 m/s, 5.8 mph) Vrb
Winds variableWinds variable from North-Northeast (30°) to East (90°)
Visibility1.9 mi. (3 km)
Clouds Ceiling: Overcast 1,400 ft. (427 m)
Altimeter29.77 in.Hg (1008 mB)
Relative humidity94 %
Density altitude796 ft. (243 m)
Remarks No significant changes expected in the next two hours
Flight conditions Instrument Meteorological Conditions
Raw dataSABE 211800Z 05005KT 030V090 3000 BR OVC014 18/17 Q1008 NOSIG RMK PP000
An error has occurred. This application may no longer respond until reloaded. Reload 🗙